Blende, Colorado
Current Conditions -  °F | °C
As of 6:53 AM on Wednesday 28 Jan 2015 (Local Time) from KPUB Reporting Station
Clear Clear  
Wind Chill: 54°   Ceiling: Unl
Heat Index: 54°   Visibility: 10mi
Dew Point: 21°   Wind: 29mph
Humidity: 28%   Direction: 310°NW
Pressure: 30"   Gusts: 40mph
Location:  38.2482°N, 104.47°W
Report Text: KPUB 281353Z AUTO 31025G35KT 10SM CLR 12/M06 A3000 RMK AO2 PK WND 31036/1305 SLP135 T01221061
Loading
Personal Weather Stations






























Interactive Weather Map New forecast layout! Learn more

10-Day Weather Forecast

Advertisements
Track Severe Weather on mobile